Data for 02/13/2017

Time Sea-Level Adjusted Pressure Absolute Pressure Temperature Relative Humidity Dew Point   
(mb) (inHg) (mb) (inHg) (C) (F) (%) (C) (F)
00:05 1027 30.33 856 25.28 -3 26.7 42 -14.1 6.7
00:10 1027 30.33 856 25.28 -2.5 27.4 41 -13.9 6.9
00:15 1027 30.33 856 25.28 -2.3 27.9 40 -14.2 6.4
00:20 1027 30.33 856 25.28 -1.8 28.7 43 -12.9 8.7
00:25 1027 30.33 856 25.28 -2.1 28.2 46 -12.3 9.8
00:30 1027 30.33 856 25.28 -2.2 28 45 -12.6 9.2
00:35 1027 30.33 856 25.28 -2.2 28.1 46 -12.3 9.9
00:40 1027 30.33 856 25.28 -2.2 28 44 -12.9 8.8
00:45 1027 30.33 856 25.28 -2.3 27.8 47 -12.2 10
00:50 1027 30.33 856 25.28 -3.3 26 50 -12.4 9.7
00:55 1027 30.33 856 25.28 -3.8 25.2 52 -12.2 10
01:00 1027 30.33 856 25.28 -3.9 24.9 53 -12.2 10.1
01:05 1027 30.33 856 25.28 -4.2 24.4 53 -12.4 9.6
01:10 1027 30.33 856 25.28 -4.8 23.3 54 -12.8 8.9
01:15 1027 30.33 856 25.28 -4.8 23.4 53 -13.1 8.5
01:20 1027 30.33 856 25.28 -4.5 23.9 52 -12.9 8.7
01:25 1027 30.33 856 25.28 -4.3 24.2 51 -13.1 8.5
01:30 1026 30.3 856 25.28 -3.8 25.2 48 -13.4 7.9
01:35 1026 30.3 855 25.25 -3.4 26 47 -13.1 8.5
01:40 1026 30.3 855 25.25 -3.3 26.1 47 -13.2 8.2
01:45 1026 30.3 855 25.25 -2.9 26.8 45 -13.3 8
01:50 1026 30.3 855 25.25 -2.8 26.9 46 -12.9 8.8
01:55 1026 30.3 855 25.25 -3.5 25.7 49 -12.9 8.8
02:00 1026 30.3 855 25.25 -3.9 25 46 -13.9 7.1
02:05 1026 30.3 855 25.25 -3.2 26.2 44 -13.8 7.1
02:10 1026 30.3 855 25.25 -3.2 26.2 45 -13.5 7.6
02:15 1026 30.3 855 25.25 -3.5 25.6 45 -13.9 7
02:20 1026 30.3 855 25.25 -3.4 25.9 44 -13.8 7.1
02:25 1027 30.33 856 25.28 -3 26.7 43 -13.9 6.9
02:30 1027 30.33 856 25.28 -2.8 26.9 44 -13.4 7.9
02:35 1027 30.33 856 25.28 -3.2 26.3 46 -13.1 8.4
02:40 1027 30.33 856 25.28 -3.6 25.5 47 -13.4 7.8
02:45 1027 30.33 856 25.28 -3.4 25.8 45 -13.7 7.3
02:50 1027 30.33 856 25.28 -3.2 26.3 43 -14 6.7
02:55 1027 30.33 856 25.28 -2.8 27 41 -14.2 6.5
03:00 1027 30.33 856 25.28 -3 26.6 44 -13.6 7.5
03:05 1027 30.33 856 25.28 -3.9 25 49 -13.2 8.2
03:10 1027 30.33 856 25.28 -4.7 23.6 51 -13.5 7.7
03:15 1027 30.33 856 25.28 -4.2 24.4 48 -13.7 7.3
03:20 1027 30.33 856 25.28 -3.8 25.2 46 -13.7 7.3
03:25 1027 30.33 856 25.28 -3 26.6 44 -13.7 7.3
03:30 1027 30.33 856 25.28 -2.7 27.1 42 -14 6.8
03:35 1027 30.33 856 25.28 -2.5 27.5 42 -13.6 7.5
03:40 1027 30.33 856 25.28 -2.7 27.2 44 -13.2 8.3
03:45 1027 30.33 856 25.28 -2.7 27.1 45 -13 8.7
03:50 1027 30.33 856 25.28 -2.8 27 43 -13.6 7.6
03:55 1027 30.33 856 25.28 -2.8 27 44 -13.5 7.7
04:00 1026 30.3 856 25.28 -2.7 27.2 45 -13 8.6
04:05 1026 30.3 856 25.28 -2.3 27.8 41 -13.9 6.9
04:10 1027 30.33 856 25.28 -2.5 27.6 43 -13.4 7.9
04:15 1027 30.33 856 25.28 -2.6 27.4 44 -13.3 8
04:20 1027 30.33 856 25.28 -3 26.6 45 -13.4 7.8
04:25 1027 30.33 856 25.28 -3.3 26 47 -13 8.6
04:30 1027 30.33 856 25.28 -3.9 24.9 49 -13.3 8.1
04:35 1027 30.33 856 25.28 -4.2 24.5 47 -13.9 7.1
04:40 1027 30.33 856 25.28 -3.7 25.4 45 -14 6.7
04:45 1027 30.33 856 25.28 -3.3 26.1 44 -14 6.8
04:50 1027 30.33 856 25.28 -3 26.6 44 -13.7 7.3
04:55 1027 30.33 856 25.28 -2.8 27 44 -13.4 7.9
05:00 1027 30.33 856 25.28 -3.1 26.4 44 -13.8 7.1
05:05 1027 30.33 856 25.28 -3.4 25.9 45 -13.7 7.4
05:10 1027 30.33 856 25.28 -3.7 25.3 46 -13.8 7.2
05:15 1027 30.33 856 25.28 -3.7 25.3 46 -13.6 7.5
05:20 1027 30.33 856 25.28 -4 24.8 46 -13.9 7
05:25 1027 30.33 856 25.28 -3.8 25.1 45 -14.1 6.7
05:30 1027 30.33 856 25.28 -3.3 26 43 -14.1 6.6
05:35 1027 30.33 856 25.28 -3.1 26.4 44 -13.9 7
05:40 1027 30.33 856 25.28 -3.3 26.1 43 -14.3 6.3
05:45 1027 30.33 856 25.28 -3.2 26.3 42 -14.3 6.3
05:50 1027 30.33 856 25.28 -3 26.6 43 -13.9 7.1
05:55 1027 30.33 856 25.28 -2.9 26.7 43 -14 6.8
06:00 1027 30.33 856 25.28 -3 26.5 45 -13.5 7.7
06:05 1027 30.33 856 25.28 -3.4 25.9 45 -13.6 7.4
06:10 1027 30.33 856 25.28 -3.3 26.1 45 -13.6 7.6
06:15 1027 30.33 856 25.28 -3.1 26.4 44 -13.7 7.4
06:20 1027 30.33 856 25.28 -3.1 26.4 44 -13.8 7.2
06:25 1027 30.33 856 25.28 -4 24.8 49 -13.3 8.1
06:30 1027 30.33 856 25.28 -4.2 24.5 49 -13.4 7.8
06:35 1027 30.33 856 25.28 -4.3 24.2 49 -13.5 7.8
06:40 1027 30.33 856 25.28 -4.5 23.9 50 -13.5 7.7
06:45 1027 30.33 856 25.28 -4.5 24 51 -13.1 8.3
06:50 1027 30.33 856 25.28 -4.5 24 51 -13.2 8.2
06:55 1027 30.33 857 25.31 -4.4 24.1 51 -13.1 8.5
07:00 1027 30.33 857 25.31 -4.3 24.2 50 -13.4 7.9
07:05 1027 30.33 857 25.31 -4 24.8 48 -13.5 7.7
07:10 1028 30.36 857 25.31 -4.2 24.4 52 -12.8 9
07:15 1028 30.36 857 25.31 -4.7 23.5 51 -13.5 7.7
07:20 1028 30.36 857 25.31 -4.8 23.3 52 -13.2 8.2
07:25 1028 30.36 857 25.31 -5.8 21.5 57 -13.1 8.4
07:30 1028 30.36 857 25.31 -5.7 21.8 53 -13.7 7.3
07:35 1028 30.36 857 25.31 -4.6 23.7 53 -12.8 8.9
07:40 1028 30.36 857 25.31 -4.1 24.6 47 -13.8 7.1
07:45 1028 30.36 857 25.31 -3.7 25.4 46 -13.6 7.6
07:50 1028 30.36 857 25.31 -3.7 25.3 47 -13.5 7.6
07:55 1028 30.36 857 25.31 -3.9 24.9 48 -13.5 7.7
08:00 1028 30.36 857 25.31 -4 24.8 48 -13.4 8
08:05 1028 30.36 857 25.31 -4.1 24.6 50 -13 8.5
08:10 1028 30.36 857 25.31 -4.5 23.9 50 -13.3 8
08:15 1028 30.36 857 25.31 -5 23.1 51 -13.6 7.6
08:20 1028 30.36 857 25.31 -5.2 22.7 53 -13.3 8
08:25 1028 30.36 857 25.31 -4.9 23.2 48 -14.2 6.4
08:30 1028 30.36 857 25.31 -3.9 25 47 -13.7 7.3
08:35 1028 30.36 857 25.31 -3.1 26.5 40 -14.8 5.3
08:40 1028 30.36 857 25.31 -2.3 27.8 40 -14.2 6.5
08:45 1028 30.36 857 25.31 -2 28.5 39 -14 6.7
08:50 1028 30.36 857 25.31 -1.4 29.4 38 -14 6.9
08:55 1028 30.36 857 25.31 -1 30.2 37 -13.9 7
09:00 1028 30.36 857 25.31 -0.6 30.8 37 -13.8 7.2
09:05 1028 30.36 857 25.31 0.1 32.1 36 -13.3 8
09:10 1028 30.36 857 25.31 0.5 32.8 34 -13.6 7.5
09:15 1028 30.36 857 25.31 -0.1 31.7 36 -13.5 7.7
09:20 1028 30.36 857 25.31 -0.1 31.8 36 -13.4 8
09:25 1028 30.36 857 25.31 0.3 32.5 33 -14.2 6.5
09:30 1028 30.36 857 25.31 0.6 33 33 -14.1 6.6
09:35 1028 30.36 857 25.31 0.9 33.7 33 -13.7 7.3
09:40 1028 30.36 857 25.31 1.3 34.4 33 -13.5 7.8
09:45 1028 30.36 857 25.31 1.6 34.9 32 -13.4 7.8
09:50 1028 30.36 857 25.31 2.1 35.8 30 -13.7 7.3
09:55 1028 30.36 857 25.31 2.5 36.5 28 -14.2 6.4
10:00 1028 30.36 857 25.31 1.6 34.9 31 -13.6 7.5
10:05 1028 30.36 857 25.31 1.5 34.7 33 -13.2 8.3
10:10 1028 30.36 857 25.31 2.1 35.7 31 -13.3 8.1
10:15 1028 30.36 857 25.31 2.3 36.2 31 -13.3 8.1
10:20 1028 30.36 857 25.31 2.6 36.6 30 -13.4 7.9
10:25 1028 30.36 857 25.31 3 37.3 29 -13.6 7.5
10:30 1028 30.36 857 25.31 3 37.4 29 -13.4 7.9
10:35 1028 30.36 857 25.31 2.6 36.8 30 -13.3 8
10:40 1028 30.36 857 25.31 2.7 36.8 30 -13.3 8.1
10:45 1028 30.36 857 25.31 2.8 37 30 -13.2 8.2
10:50 1028 30.36 857 25.31 3.1 37.5 29 -13.2 8.2
10:55 1028 30.36 857 25.31 3 37.5 30 -13.1 8.5
11:00 1028 30.36 857 25.31 2.9 37.1 29 -13.3 8
11:05 1028 30.36 857 25.31 3 37.4 30 -13.1 8.4
11:10 1028 30.36 857 25.31 3.2 37.7 30 -13 8.6
11:15 1028 30.36 857 25.31 2.6 36.6 30 -13.4 7.8
11:20 1028 30.36 857 25.31 2.7 36.9 31 -12.8 8.9
11:25 1028 30.36 857 25.31 3.1 37.5 30 -12.9 8.8
11:30 1028 30.36 857 25.31 3.5 38.3 29 -12.9 8.7
11:35 1028 30.36 857 25.31 3.1 37.6 30 -13 8.6
11:40 1028 30.36 857 25.31 3.1 37.7 30 -12.8 9
11:45 1028 30.36 857 25.31 3.5 38.3 31 -12.1 10.2
11:50 1028 30.36 857 25.31 3.4 38.1 32 -12 10.4
11:55 1028 30.36 857 25.31 3.6 38.4 31 -12.2 10
12:00 1028 30.36 857 25.31 3.7 38.6 31 -11.9 10.6
12:05 1028 30.36 857 25.31 3.8 38.9 31 -11.9 10.5
12:10 1028 30.36 857 25.31 4.4 39.9 31 -11.5 11.3
12:15 1028 30.36 857 25.31 5 41 26 -12.9 8.8
12:20 1028 30.36 857 25.31 5.3 41.6 26 -12.6 9.3
12:25 1028 30.36 857 25.31 5.4 41.8 27 -12 10.4
12:30 1028 30.36 857 25.31 5.4 41.7 28 -11.6 11.1
12:35 1028 30.36 857 25.31 5.6 42.1 28 -11.4 11.4
12:40 1028 30.36 857 25.31 6.2 43.1 28 -11.2 11.9
12:45 1027 30.33 857 25.31 6.5 43.7 28 -10.8 12.6
12:50 1027 30.33 857 25.31 6.3 43.3 28 -10.9 12.3
12:55 1027 30.33 857 25.31 5.7 42.2 30 -10.6 12.9
13:00 1027 30.33 857 25.31 5.2 41.3 29 -11.5 11.2
13:05 1027 30.33 856 25.28 5.1 41.2 29 -11.6 11.1
13:10 1027 30.33 856 25.28 5.4 41.7 29 -11.4 11.5
13:15 1027 30.33 856 25.28 5.6 42.1 27 -11.8 10.8
13:20 1027 30.33 856 25.28 5.8 42.4 26 -12.3 9.9
13:25 1027 30.33 856 25.28 5.5 41.9 27 -12.1 10.3
13:30 1027 30.33 856 25.28 6 42.7 26 -12.1 10.2
13:35 1027 30.33 856 25.28 6.1 43 25 -12.4 9.7
13:40 1027 30.33 856 25.28 6 42.8 26 -12 10.5
13:45 1027 30.33 856 25.28 5.6 42.1 27 -12 10.3
13:50 1027 30.33 856 25.28 6.4 43.5 26 -11.8 10.8
13:55 1027 30.33 856 25.28 7 44.6 25 -11.8 10.7
14:00 1027 30.33 856 25.28 7 44.7 25 -11.9 10.5
14:05 1027 30.33 856 25.28 6.8 44.2 27 -11.1 12.1
14:10 1027 30.33 856 25.28 6.6 44 26 -11.4 11.5
14:15 1027 30.33 856 25.28 7.3 45.2 24 -12.2 10.1
14:20 1027 30.33 856 25.28 7.6 45.7 24 -11.7 11
14:25 1027 30.33 856 25.28 7.9 46.2 22 -12.4 9.7
14:30 1027 30.33 856 25.28 8.3 46.9 20 -13.5 7.7
14:35 1027 30.33 856 25.28 8 46.3 21 -13.3 8.1
14:40 1027 30.33 856 25.28 7.3 45.1 24 -12.3 9.9
14:45 1027 30.33 856 25.28 7.7 45.9 20 -14.2 6.4
14:50 1027 30.33 856 25.28 7.9 46.3 18 -14.8 5.3
14:55 1027 30.33 856 25.28 6.7 44.1 22 -13.5 7.8
15:00 1027 30.33 856 25.28 6 42.7 25 -12.4 9.7
15:05 1027 30.33 856 25.28 7.1 44.7 22 -13.1 8.3
15:10 1027 30.33 856 25.28 6.7 44.1 22 -13.4 7.8
15:15 1027 30.33 856 25.28 6.2 43.2 23 -13.3 8.1
15:20 1027 30.33 856 25.28 7.5 45.4 22 -12.9 8.8
15:25 1027 30.33 856 25.28 7.6 45.7 22 -13 8.7
15:30 1027 30.33 856 25.28 7.4 45.4 22 -13.1 8.4
15:35 1027 30.33 856 25.28 7.5 45.6 22 -13.2 8.3
15:40 1027 30.33 856 25.28 7.8 46.1 21 -13.1 8.4
15:45 1027 30.33 856 25.28 7.7 45.9 22 -12.5 9.5
15:50 1027 30.33 856 25.28 7.2 44.9 27 -10.6 13
15:55 1027 30.33 856 25.28 6.3 43.4 27 -11.3 11.7
16:00 1027 30.33 856 25.28 6.5 43.6 26 -11.8 10.8
16:05 1027 30.33 856 25.28 6.6 44 24 -12.6 9.4
16:10 1026 30.3 856 25.28 6.9 44.5 23 -12.9 8.7
16:15 1026 30.3 856 25.28 7.3 45.1 21 -13.6 7.6
16:20 1026 30.3 856 25.28 7 44.6 18 -15.7 3.7
16:25 1026 30.3 856 25.28 6.9 44.4 17 -16.5 2.3
16:30 1026 30.3 855 25.25 6.7 44.1 17 -16.4 2.5
16:35 1026 30.3 855 25.25 6.6 43.9 19 -15.5 4
16:40 1026 30.3 855 25.25 6.4 43.6 19 -15.4 4.3
16:45 1026 30.3 855 25.25 5.8 42.4 21 -15 5
16:50 1026 30.3 855 25.25 5.7 42.2 20 -15.7 3.7
16:55 1026 30.3 855 25.25 5.9 42.6 20 -15.6 3.9
17:00 1026 30.3 855 25.25 5.9 42.6 20 -15.6 3.9
17:05 1026 30.3 855 25.25 5.8 42.5 21 -14.7 5.5
17:10 1026 30.3 855 25.25 5.7 42.2 23 -13.8 7.1
17:15 1026 30.3 855 25.25 5.8 42.5 23 -13.9 7
17:20 1026 30.3 855 25.25 5.9 42.6 24 -13.4 7.8
17:25 1026 30.3 855 25.25 5.7 42.3 23 -13.9 7
17:30 1026 30.3 855 25.25 5.3 41.5 23 -14.3 6.3
17:35 1026 30.3 855 25.25 4.7 40.4 27 -12.7 9.2
17:40 1026 30.3 855 25.25 4.1 39.3 30 -12.1 10.2
17:45 1026 30.3 855 25.25 3.8 38.8 31 -12.1 10.2
17:50 1026 30.3 855 25.25 3.5 38.4 30 -12.6 9.4
17:55 1026 30.3 855 25.25 3.4 38.2 28 -13.6 7.5
18:00 1026 30.3 855 25.25 3.4 38.1 27 -14 6.8
18:05 1026 30.3 855 25.25 3.4 38.1 27 -14 6.8
18:10 1026 30.3 855 25.25 3.4 38.1 27 -13.8 7.2
18:15 1026 30.3 855 25.25 3.4 38.1 28 -13.7 7.4
18:20 1026 30.3 855 25.25 3.3 37.9 29 -13.1 8.5
18:25 1026 30.3 855 25.25 3.2 37.7 31 -12.4 9.6
18:30 1026 30.3 855 25.25 3 37.3 31 -12.7 9.1
18:35 1026 30.3 855 25.25 2.6 36.7 37 -10.6 12.9
18:40 1026 30.3 855 25.25 2.2 35.9 39 -10.6 13
18:45 1026 30.3 855 25.25 2 35.6 37 -11.2 11.9
18:50 1026 30.3 855 25.25 2 35.7 36 -11.6 11.1
18:55 1026 30.3 855 25.25 2 35.6 38 -10.9 12.4
19:00 1026 30.3 855 25.25 1.9 35.5 38 -11.1 12
19:05 1026 30.3 855 25.25 1.8 35.2 38 -11.2 11.8
19:10 1026 30.3 855 25.25 1.7 35.1 38 -11.2 11.9
19:15 1026 30.3 856 25.28 1.4 34.6 42 -10.3 13.5
19:20 1026 30.3 856 25.28 0.9 33.6 44 -10.1 13.8
19:25 1026 30.3 856 25.28 0.4 32.7 44 -10.5 13
19:30 1026 30.3 856 25.28 0.1 32.2 46 -10.1 13.8
19:35 1026 30.3 856 25.28 -0.1 31.9 44 -10.8 12.6
19:40 1026 30.3 855 25.25 -0.1 31.9 45 -10.6 13
19:45 1026 30.3 855 25.25 0.1 32.1 43 -11 12.1
19:50 1026 30.3 855 25.25 0.2 32.3 42 -11.4 11.5
19:55 1026 30.3 855 25.25 0.4 32.7 41 -11.4 11.5
20:00 1026 30.3 855 25.25 0.5 32.9 41 -11.3 11.6
20:05 1026 30.3 855 25.25 0.5 32.9 42 -10.9 12.3
20:10 1026 30.3 855 25.25 0.4 32.6 42 -11.1 12
20:15 1026 30.3 855 25.25 0.3 32.5 43 -10.9 12.4
20:20 1026 30.3 855 25.25 0.2 32.3 42 -11.4 11.5
20:25 1026 30.3 856 25.28 0.3 32.6 40 -11.7 10.9
20:30 1026 30.3 855 25.25 0.2 32.4 41 -11.6 11.2
20:35 1026 30.3 855 25.25 -0.1 31.8 43 -11.3 11.6
20:40 1026 30.3 855 25.25 -0.3 31.4 43 -11.6 11.2
20:45 1026 30.3 855 25.25 -0.4 31.3 42 -11.8 10.8
20:50 1026 30.3 855 25.25 -0.2 31.6 40 -12.3 9.9
20:55 1026 30.3 855 25.25 0.2 32.4 41 -11.6 11.1
21:00 1026 30.3 855 25.25 0.1 32.3 43 -11.1 12.1
21:05 1026 30.3 855 25.25 -0.2 31.7 42 -11.6 11
21:10 1026 30.3 855 25.25 -0.3 31.5 46 -10.7 12.7
21:15 1026 30.3 855 25.25 -0.8 30.5 43 -11.9 10.7
21:20 1026 30.3 856 25.28 -0.7 30.7 45 -11.3 11.7
21:25 1026 30.3 856 25.28 -1.1 29.9 47 -11.2 11.8
21:30 1026 30.3 856 25.28 -1.4 29.6 47 -11.3 11.7
21:35 1026 30.3 855 25.25 -1.5 29.2 48 -11.2 11.9
21:40 1026 30.3 855 25.25 -1.7 28.9 47 -11.6 11.2
21:45 1026 30.3 855 25.25 -1.7 28.9 48 -11.5 11.4
21:50 1026 30.3 856 25.28 -1.7 28.9 46 -11.8 10.8
21:55 1026 30.3 856 25.28 -1.4 29.4 46 -11.6 11.1
22:00 1026 30.3 856 25.28 -1.5 29.2 46 -11.6 11.1
22:05 1026 30.3 855 25.25 -1.6 29.2 47 -11.6 11.2
22:10 1026 30.3 855 25.25 -1.5 29.3 47 -11.6 11.2
22:15 1026 30.3 855 25.25 -1.6 29 47 -11.5 11.2
22:20 1026 30.3 855 25.25 -1.9 28.6 49 -11.3 11.6
22:25 1026 30.3 855 25.25 -2 28.5 49 -11.4 11.5
22:30 1026 30.3 855 25.25 -1.7 29 47 -11.6 11
22:35 1026 30.3 855 25.25 -1 30.2 45 -11.5 11.2
22:40 1026 30.3 855 25.25 -1.3 29.7 46 -11.6 11.2
22:45 1026 30.3 855 25.25 -1.5 29.4 45 -11.9 10.6
22:50 1026 30.3 855 25.25 -1.4 29.4 46 -11.5 11.3
22:55 1026 30.3 855 25.25 -1.5 29.3 47 -11.5 11.2
23:00 1026 30.3 855 25.25 -1.6 29.1 48 -11.3 11.6
23:05 1026 30.3 855 25.25 -1.8 28.7 48 -11.4 11.5
23:10 1026 30.3 855 25.25 -1.9 28.6 46 -11.9 10.5
23:15 1026 30.3 856 25.28 -1.7 29 46 -11.8 10.7
23:20 1026 30.3 856 25.28 -1.6 29 47 -11.7 11
23:25 1026 30.3 856 25.28 -1.8 28.7 49 -11.3 11.7
23:30 1026 30.3 856 25.28 -2.1 28.3 49 -11.4 11.5
23:35 1026 30.3 856 25.28 -2.1 28.2 49 -11.5 11.3
23:40 1026 30.3 856 25.28 -2.1 28.2 48 -11.6 11.1
23:45 1026 30.3 856 25.28 -1.9 28.6 49 -11.3 11.6
23:50 1026 30.3 855 25.25 -1.8 28.7 47 -11.6 11.1
23:55 1026 30.3 855 25.25 -1.2 29.8 44 -11.9 10.6
24:00 1026 30.3 855 25.25 -0.4 31.2 45 -11 12.2